createdAt,value
2022-11-30T00:00:21.710Z,17.35
2022-11-30T00:02:49.722Z,15.43
2022-11-30T00:05:16.325Z,16.83
2022-11-30T00:07:42.906Z,19.27
2022-11-30T00:10:09.641Z,17.17
2022-11-30T00:12:35.971Z,18.15
2022-11-30T00:15:02.423Z,18.90
2022-11-30T00:17:28.805Z,18.20
2022-11-30T00:19:55.128Z,17.93
2022-11-30T00:22:21.499Z,18.45
2022-11-30T00:24:48.086Z,16.42
2022-11-30T00:27:14.526Z,15.80
2022-11-30T00:29:40.927Z,16.33
2022-11-30T00:32:07.238Z,18.13
2022-11-30T00:34:33.618Z,19.02
2022-11-30T00:36:59.987Z,15.82
2022-11-30T00:39:28.690Z,18.05
2022-11-30T00:41:58.694Z,19.95
2022-11-30T00:44:25.023Z,17.63
2022-11-30T00:46:51.398Z,21.52
2022-11-30T00:49:17.757Z,19.23
2022-11-30T00:51:44.155Z,20.25
2022-11-30T00:54:10.498Z,20.23
2022-11-30T00:56:36.867Z,20.57
2022-11-30T00:59:03.211Z,20.48
2022-11-30T01:01:31.276Z,20.45
2022-11-30T01:03:58.478Z,18.30
2022-11-30T01:06:24.838Z,19.70
2022-11-30T01:08:51.214Z,16.93
2022-11-30T01:11:28.889Z,20.05
2022-11-30T01:13:56.162Z,18.65
2022-11-30T01:16:29.230Z,18.40
2022-11-30T01:18:55.854Z,22.98
2022-11-30T01:21:24.717Z,20.67
2022-11-30T01:23:52.000Z,18.05
2022-11-30T01:26:19.378Z,19.30
2022-11-30T01:28:50.466Z,17.80
2022-11-30T01:31:17.248Z,21.27
2022-11-30T01:33:43.743Z,18.33
2022-11-30T01:36:16.599Z,20.15
2022-11-30T01:38:45.963Z,19.35
2022-11-30T01:41:15.457Z,18.00
2022-11-30T01:43:47.683Z,19.45
2022-11-30T01:46:32.517Z,18.17
2022-11-30T01:49:15.926Z,18.38
2022-11-30T01:51:49.868Z,21.00
2022-11-30T01:54:20.904Z,19.77
2022-11-30T01:56:51.964Z,18.45
2022-11-30T01:59:20.592Z,22.10
2022-11-30T02:01:47.591Z,17.95
2022-11-30T02:04:20.398Z,20.25
2022-11-30T02:06:48.136Z,17.33
2022-11-30T02:09:16.539Z,20.13
2022-11-30T02:11:42.866Z,16.70
2022-11-30T02:14:15.025Z,16.65
2022-11-30T02:17:08.467Z,19.55
2022-11-30T02:19:43.773Z,18.02
2022-11-30T02:22:28.977Z,19.83
2022-11-30T02:25:04.226Z,17.47
2022-11-30T02:27:40.116Z,19.17
2022-11-30T02:30:16.440Z,19.30
2022-11-30T02:32:53.959Z,20.75
2022-11-30T02:35:24.710Z,17.25
2022-11-30T02:37:53.246Z,18.20
2022-11-30T02:40:21.504Z,16.40
2022-11-30T02:42:51.831Z,19.00
2022-11-30T02:45:31.400Z,19.90
2022-11-30T02:48:07.848Z,17.77
2022-11-30T02:50:40.906Z,21.07
2022-11-30T02:53:09.568Z,16.17
2022-11-30T02:55:36.552Z,17.20
2022-11-30T02:58:03.259Z,18.67
2022-11-30T03:00:29.731Z,17.55
2022-11-30T03:02:56.169Z,19.57
2022-11-30T03:05:23.184Z,20.00
2022-11-30T03:07:49.729Z,17.27
2022-11-30T03:10:16.467Z,17.00
2022-11-30T03:12:42.850Z,18.63
2022-11-30T03:15:09.572Z,17.20
2022-11-30T03:17:35.964Z,19.13
2022-11-30T03:20:02.375Z,18.10
2022-11-30T03:22:28.699Z,17.98
2022-11-30T03:24:55.154Z,20.15
2022-11-30T03:27:22.721Z,19.93
2022-11-30T03:29:49.100Z,17.50
2022-11-30T03:32:15.534Z,21.38
2022-11-30T03:34:41.920Z,15.80
2022-11-30T03:37:08.347Z,16.27
2022-11-30T03:39:34.736Z,19.27
2022-11-30T03:42:01.208Z,17.70
2022-11-30T03:44:27.598Z,18.25
2022-11-30T03:46:54.009Z,19.13
2022-11-30T03:49:20.409Z,17.67
2022-11-30T03:51:46.765Z,16.13
2022-11-30T03:54:13.195Z,18.08
2022-11-30T03:56:40.342Z,21.15
2022-11-30T03:59:06.659Z,19.85
2022-11-30T04:01:33.187Z,20.35
2022-11-30T04:03:59.622Z,17.50
2022-11-30T04:06:26.067Z,22.75
2022-11-30T04:08:52.447Z,17.98
2022-11-30T04:11:18.839Z,21.50
2022-11-30T04:13:45.159Z,20.98
2022-11-30T04:16:11.696Z,18.47
2022-11-30T04:18:38.349Z,20.05
2022-11-30T04:21:06.674Z,18.52
2022-11-30T04:23:35.726Z,19.33
2022-11-30T04:26:07.154Z,19.17
2022-11-30T04:28:34.393Z,17.33
2022-11-30T04:31:01.111Z,16.08
2022-11-30T04:33:30.730Z,16.33
2022-11-30T04:36:00.081Z,17.17
2022-11-30T04:38:27.318Z,19.25
2022-11-30T04:40:54.204Z,12.93
2022-11-30T04:43:20.981Z,15.27
2022-11-30T04:45:48.150Z,14.60
2022-11-30T04:48:16.253Z,14.10
2022-11-30T04:50:42.922Z,17.65
2022-11-30T04:53:09.375Z,14.73
2022-11-30T04:55:37.784Z,15.80
2022-11-30T04:58:05.192Z,16.92
2022-11-30T05:00:31.546Z,17.70
2022-11-30T05:02:57.966Z,16.33
2022-11-30T05:05:24.666Z,17.63
2022-11-30T05:07:55.784Z,14.95
2022-11-30T05:10:22.202Z,17.30
2022-11-30T05:12:48.554Z,19.00
2022-11-30T05:15:14.889Z,18.20
2022-11-30T05:17:41.199Z,16.57
2022-11-30T05:20:08.077Z,17.52
2022-11-30T05:22:37.359Z,17.70
2022-11-30T05:25:03.978Z,17.25
2022-11-30T05:27:30.510Z,16.08
2022-11-30T05:29:56.929Z,16.47
2022-11-30T05:32:23.278Z,19.45
2022-11-30T05:34:51.974Z,18.50
2022-11-30T05:37:19.237Z,15.65
2022-11-30T05:39:45.556Z,16.42
2022-11-30T05:42:11.906Z,13.37
2022-11-30T05:44:38.316Z,14.00
2022-11-30T05:47:04.850Z,14.40
2022-11-30T05:49:31.359Z,16.50
2022-11-30T05:51:57.782Z,14.93
2022-11-30T05:54:24.146Z,12.27
2022-11-30T05:56:54.664Z,15.75
2022-11-30T05:59:21.979Z,14.02
2022-11-30T06:01:48.682Z,14.05
2022-11-30T06:04:15.136Z,14.43
2022-11-30T06:06:41.477Z,16.30
2022-11-30T06:09:07.905Z,15.32
2022-11-30T06:11:34.286Z,17.00
2022-11-30T06:14:00.687Z,16.48
2022-11-30T06:16:27.074Z,15.13
2022-11-30T06:18:53.574Z,18.50
2022-11-30T06:21:24.361Z,17.63
2022-11-30T06:23:52.135Z,19.25
2022-11-30T06:26:18.434Z,18.67
2022-11-30T06:28:48.131Z,17.77
2022-11-30T06:31:15.418Z,18.13
2022-11-30T06:33:41.822Z,17.08
2022-11-30T06:36:08.462Z,16.67
2022-11-30T06:38:34.832Z,17.60
2022-11-30T06:41:06.747Z,25.85
2022-11-30T06:43:38.337Z,15.17
2022-11-30T06:46:06.064Z,14.70
2022-11-30T06:48:33.386Z,13.85
2022-11-30T06:51:00.507Z,13.27
2022-11-30T06:53:27.320Z,15.60
2022-11-30T06:55:53.806Z,14.87
2022-11-30T06:58:20.165Z,15.68
2022-11-30T07:00:46.785Z,16.42
2022-11-30T07:03:13.673Z,14.80
2022-11-30T07:05:45.858Z,14.18
2022-11-30T07:08:14.294Z,16.80
2022-11-30T07:10:42.393Z,13.35
2022-11-30T07:13:13.967Z,15.18
2022-11-30T07:15:41.966Z,16.30
2022-11-30T07:18:08.835Z,13.32
2022-11-30T07:20:35.351Z,16.90
2022-11-30T07:23:20.298Z,15.90
2022-11-30T07:26:05.160Z,19.15
2022-11-30T07:28:31.669Z,14.60
2022-11-30T07:30:57.997Z,22.50
2022-11-30T07:33:24.311Z,23.67
2022-11-30T07:35:53.464Z,23.30
2022-11-30T07:38:20.243Z,25.98
2022-11-30T07:40:46.570Z,23.88
2022-11-30T07:43:12.895Z,22.05
2022-11-30T07:45:39.296Z,22.80
2022-11-30T07:48:05.726Z,31.85
2022-11-30T07:50:32.119Z,25.48
2022-11-30T07:52:58.466Z,32.95
2022-11-30T07:55:25.050Z,28.70
2022-11-30T07:57:51.347Z,22.60
2022-11-30T08:00:17.815Z,22.88
2022-11-30T08:02:44.178Z,24.48
2022-11-30T08:05:12.047Z,30.13
2022-11-30T08:07:38.625Z,21.38
2022-11-30T08:10:06.204Z,22.73
2022-11-30T08:12:32.580Z,20.63
2022-11-30T08:15:19.421Z,21.98
2022-11-30T08:17:45.582Z,21.75
2022-11-30T08:20:12.246Z,23.00
2022-11-30T08:22:38.619Z,23.17
2022-11-30T08:25:05.604Z,24.38
2022-11-30T08:27:31.938Z,20.85
2022-11-30T08:29:58.320Z,20.67
2022-11-30T08:32:24.752Z,25.08
2022-11-30T08:34:51.224Z,21.33
2022-11-30T08:37:17.556Z,21.95
2022-11-30T08:39:43.896Z,20.02
2022-11-30T08:42:10.225Z,20.52
2022-11-30T08:44:36.538Z,20.65
2022-11-30T08:47:03.022Z,19.33
2022-11-30T08:49:30.914Z,19.13
2022-11-30T08:54:46.110Z,23.08
2022-11-30T08:57:14.359Z,18.60
2022-11-30T08:59:40.693Z,20.23
2022-11-30T09:02:09.762Z,21.35
2022-11-30T09:04:36.138Z,21.60
2022-11-30T09:07:03.632Z,21.58
2022-11-30T09:09:29.963Z,19.48
2022-11-30T09:11:56.344Z,19.23
2022-11-30T09:14:22.791Z,23.20
2022-11-30T09:16:49.199Z,23.05
2022-11-30T09:19:15.517Z,21.77
2022-11-30T09:21:45.377Z,22.67
2022-11-30T09:24:16.263Z,19.40
2022-11-30T09:26:42.610Z,18.85
2022-11-30T09:29:09.017Z,22.85
2022-11-30T09:31:35.378Z,20.45
2022-11-30T09:34:01.743Z,22.63
2022-11-30T09:36:29.057Z,24.57
2022-11-30T09:38:56.762Z,19.92
2022-11-30T09:41:46.775Z,22.08
2022-11-30T09:44:23.947Z,20.92
2022-11-30T09:46:59.138Z,21.30
2022-11-30T09:49:30.225Z,24.27
2022-11-30T09:52:00.491Z,21.65
2022-11-30T09:54:42.080Z,22.30
2022-11-30T09:57:33.978Z,22.65
2022-11-30T10:00:10.369Z,21.50
2022-11-30T10:02:38.754Z,23.50
2022-11-30T10:05:16.966Z,24.60
2022-11-30T10:08:17.924Z,22.42
2022-11-30T10:11:32.468Z,25.27
2022-11-30T10:14:31.221Z,26.35
2022-11-30T10:17:09.257Z,23.87
2022-11-30T10:19:46.815Z,25.83
2022-11-30T10:22:22.483Z,25.02
2022-11-30T10:25:17.949Z,24.63
2022-11-30T10:27:53.763Z,25.58
2022-11-30T10:30:32.090Z,22.63
2022-11-30T10:33:05.377Z,24.83
2022-11-30T10:35:38.728Z,25.52
2022-11-30T10:38:16.857Z,23.70
2022-11-30T10:40:53.604Z,27.13
2022-11-30T10:43:38.116Z,25.50
2022-11-30T10:46:05.514Z,23.00
2022-11-30T10:48:42.975Z,26.90
2022-11-30T10:51:11.363Z,24.50
2022-11-30T10:53:37.867Z,23.33
2022-11-30T10:56:07.460Z,25.60
2022-11-30T10:58:43.333Z,25.92
2022-11-30T11:01:29.117Z,21.27
2022-11-30T11:04:17.000Z,24.20
2022-11-30T11:06:56.589Z,21.35
2022-11-30T11:09:49.411Z,21.50
2022-11-30T11:12:19.224Z,23.20
2022-11-30T11:14:45.735Z,23.35
2022-11-30T11:17:18.135Z,23.80
2022-11-30T11:19:47.401Z,24.33
2022-11-30T11:22:22.808Z,20.40
2022-11-30T11:24:51.782Z,20.05
2022-11-30T11:27:30.449Z,22.45
2022-11-30T11:30:27.440Z,18.52
2022-11-30T11:33:15.400Z,17.95
2022-11-30T11:36:12.170Z,16.10
2022-11-30T11:38:43.202Z,17.30
2022-11-30T11:41:31.375Z,17.65
2022-11-30T11:44:09.854Z,16.35
2022-11-30T11:46:51.830Z,16.80
2022-11-30T11:49:22.510Z,19.00
2022-11-30T11:52:00.754Z,14.55
2022-11-30T11:54:51.818Z,16.35
2022-11-30T11:57:23.390Z,16.55
2022-11-30T11:59:55.501Z,18.25
2022-11-30T12:02:45.546Z,17.53
2022-11-30T12:05:24.491Z,17.23
2022-11-30T12:08:01.710Z,17.98
2022-11-30T12:10:59.133Z,20.42
2022-11-30T12:13:40.845Z,18.92
2022-11-30T12:16:16.961Z,22.23
2022-11-30T12:18:57.413Z,22.50
2022-11-30T12:21:42.621Z,20.27
2022-11-30T12:24:25.399Z,22.63
2022-11-30T12:27:16.413Z,21.95
2022-11-30T12:29:42.788Z,21.80
2022-11-30T12:32:26.908Z,23.40
2022-11-30T12:35:02.720Z,20.73
2022-11-30T12:37:48.025Z,19.63
2022-11-30T12:40:44.794Z,20.17
2022-11-30T12:43:14.230Z,20.60
2022-11-30T12:45:43.737Z,22.90
2022-11-30T12:48:35.440Z,21.38
2022-11-30T12:51:23.899Z,22.10
2022-11-30T12:54:21.054Z,22.15
2022-11-30T12:56:57.100Z,23.03
2022-11-30T12:59:32.557Z,23.00
2022-11-30T13:02:04.949Z,24.05
2022-11-30T13:04:43.076Z,23.98
2022-11-30T13:07:29.900Z,21.30
2022-11-30T13:10:07.734Z,23.23
2022-11-30T13:12:38.830Z,21.73
2022-11-30T13:15:15.675Z,21.20
2022-11-30T13:17:43.779Z,22.00
2022-11-30T13:20:33.042Z,21.05
2022-11-30T13:23:09.982Z,22.53
2022-11-30T13:28:42.562Z,22.15
2022-11-30T13:31:17.539Z,26.75
2022-11-30T13:33:49.495Z,22.58
2022-11-30T13:36:25.960Z,22.83
2022-11-30T13:39:14.115Z,22.38
2022-11-30T13:41:43.636Z,21.55
2022-11-30T13:44:32.239Z,20.73
2022-11-30T13:47:01.578Z,19.90
2022-11-30T13:49:30.420Z,19.97
2022-11-30T13:52:21.384Z,19.70
2022-11-30T13:54:47.982Z,19.73
2022-11-30T13:57:18.146Z,22.15
2022-11-30T13:59:49.871Z,18.00
2022-11-30T14:02:36.274Z,21.57
2022-11-30T14:05:17.901Z,21.30
2022-11-30T14:07:47.634Z,21.70
2022-11-30T14:10:44.221Z,20.05
2022-11-30T14:13:10.673Z,15.40
2022-11-30T14:15:36.968Z,17.60
2022-11-30T14:18:11.123Z,16.08
2022-11-30T14:21:02.533Z,16.95
2022-11-30T14:23:53.016Z,17.55
2022-11-30T14:26:28.904Z,15.77
2022-11-30T14:29:04.046Z,18.50
2022-11-30T14:31:39.596Z,17.38
2022-11-30T14:34:27.236Z,18.88
2022-11-30T14:37:03.793Z,21.52
2022-11-30T14:39:36.468Z,18.05
2022-11-30T14:42:06.539Z,17.53
2022-11-30T14:44:40.556Z,18.52
2022-11-30T14:47:15.263Z,18.77
2022-11-30T14:49:47.197Z,17.40
2022-11-30T14:52:20.418Z,19.67
2022-11-30T14:54:47.338Z,19.13
2022-11-30T14:57:24.979Z,15.95
2022-11-30T14:59:53.983Z,18.90
2022-11-30T15:02:31.430Z,19.85
2022-11-30T15:04:58.986Z,20.05
2022-11-30T15:07:25.849Z,18.27
2022-11-30T15:10:01.390Z,19.75
2022-11-30T15:12:27.896Z,20.45
2022-11-30T15:15:27.669Z,20.75
2022-11-30T15:18:17.582Z,21.30
2022-11-30T15:20:55.456Z,21.00
2022-11-30T15:23:22.300Z,18.23
2022-11-30T15:26:06.282Z,18.92
2022-11-30T15:28:38.939Z,20.65
2022-11-30T15:31:09.084Z,19.90
2022-11-30T15:33:45.870Z,20.93
2022-11-30T15:36:27.747Z,24.48
2022-11-30T15:39:00.881Z,18.27
2022-11-30T15:41:27.413Z,19.98
2022-11-30T15:43:56.164Z,19.20
2022-11-30T15:46:32.618Z,18.90
2022-11-30T15:49:29.429Z,22.38
2022-11-30T15:52:11.048Z,21.65
2022-11-30T15:54:48.196Z,20.65
2022-11-30T15:57:16.408Z,22.02
2022-11-30T15:59:43.370Z,21.10
2022-11-30T16:02:33.882Z,21.23
2022-11-30T16:05:08.412Z,21.17
2022-11-30T16:07:57.334Z,20.40
2022-11-30T16:10:27.275Z,20.10
2022-11-30T16:12:54.879Z,18.63
2022-11-30T16:15:27.250Z,19.67
2022-11-30T16:17:58.365Z,22.40
2022-11-30T16:20:25.018Z,21.85
2022-11-30T16:22:51.387Z,22.17
2022-11-30T16:25:23.479Z,25.87
2022-11-30T16:27:50.443Z,21.80
2022-11-30T16:30:20.996Z,20.10
2022-11-30T16:32:47.450Z,24.73
2022-11-30T16:35:30.141Z,21.70
2022-11-30T16:37:56.556Z,22.03
2022-11-30T16:40:23.025Z,22.13
2022-11-30T16:42:50.841Z,23.55
2022-11-30T16:45:25.401Z,20.70
2022-11-30T16:47:52.403Z,23.63
2022-11-30T16:50:19.982Z,20.57
2022-11-30T16:52:46.602Z,20.88
2022-11-30T16:55:20.250Z,18.77
2022-11-30T16:57:47.563Z,22.88
2022-11-30T17:00:18.143Z,23.02
2022-11-30T17:02:58.196Z,25.87
2022-11-30T17:05:25.200Z,23.63
2022-11-30T17:07:52.332Z,22.63
2022-11-30T17:10:19.229Z,22.73
2022-11-30T17:12:45.842Z,21.25
2022-11-30T17:15:21.675Z,25.17
2022-11-30T17:17:48.391Z,24.02
2022-11-30T17:20:16.155Z,22.90
2022-11-30T17:22:43.953Z,22.92
2022-11-30T17:25:19.218Z,23.65
2022-11-30T17:27:46.429Z,23.10
2022-11-30T17:30:15.086Z,22.52
2022-11-30T17:32:41.513Z,27.13
2022-11-30T17:35:08.840Z,28.00
2022-11-30T17:37:35.839Z,24.73
2022-11-30T17:40:03.718Z,25.83
2022-11-30T17:42:30.443Z,26.63
2022-11-30T17:44:56.817Z,28.60
2022-11-30T17:47:23.252Z,23.70
2022-11-30T17:49:50.125Z,26.65
2022-11-30T17:52:17.050Z,24.67
2022-11-30T17:54:43.473Z,24.60
2022-11-30T17:57:09.865Z,28.17
2022-11-30T17:59:36.258Z,26.98
2022-11-30T18:02:02.765Z,25.85
2022-11-30T18:04:29.236Z,26.83
2022-11-30T18:06:55.624Z,27.55
2022-11-30T18:09:23.919Z,28.67
2022-11-30T18:11:50.317Z,25.02
2022-11-30T18:14:16.679Z,30.10
2022-11-30T18:16:43.057Z,27.23
2022-11-30T18:19:14.927Z,24.20
2022-11-30T18:21:44.071Z,26.10
2022-11-30T18:24:12.096Z,28.88
2022-11-30T18:26:39.233Z,21.55
2022-11-30T18:29:07.179Z,26.37
2022-11-30T18:31:34.126Z,22.33
2022-11-30T18:34:03.507Z,24.13
2022-11-30T18:36:30.866Z,24.67
2022-11-30T18:38:57.612Z,26.98
2022-11-30T18:41:26.124Z,25.83
2022-11-30T18:43:55.767Z,27.33
2022-11-30T18:46:22.249Z,28.77
2022-11-30T18:48:50.525Z,23.88
2022-11-30T18:51:20.115Z,29.58
2022-11-30T18:53:47.532Z,26.93
2022-11-30T18:56:20.726Z,28.25
2022-11-30T18:58:48.351Z,29.65
2022-11-30T19:01:20.052Z,29.05
2022-11-30T19:04:10.561Z,27.10
2022-11-30T19:06:38.374Z,30.97
2022-11-30T19:09:10.680Z,36.00
2022-11-30T19:11:38.228Z,27.33
2022-11-30T19:14:05.559Z,28.98
2022-11-30T19:16:34.595Z,30.45
2022-11-30T19:19:04.133Z,29.73
2022-11-30T19:21:30.691Z,28.50
2022-11-30T19:23:58.095Z,30.10
2022-11-30T19:26:24.561Z,30.13
2022-11-30T19:28:53.581Z,28.08
2022-11-30T19:31:20.880Z,31.20
2022-11-30T19:33:49.508Z,27.10
2022-11-30T19:36:21.535Z,30.60
2022-11-30T19:38:48.840Z,29.52
2022-11-30T19:41:15.738Z,29.60
2022-11-30T19:43:47.779Z,30.73
2022-11-30T19:46:17.978Z,26.60
2022-11-30T19:48:45.100Z,30.55
2022-11-30T19:51:18.027Z,28.38
2022-11-30T19:53:45.869Z,30.17
2022-11-30T19:56:15.561Z,32.73
2022-11-30T19:58:43.873Z,31.98
2022-11-30T20:01:22.938Z,32.35
2022-11-30T20:03:53.589Z,34.45
2022-11-30T20:06:23.397Z,41.55
2022-11-30T20:08:49.704Z,32.13
2022-11-30T20:11:16.477Z,31.98
2022-11-30T20:13:43.849Z,34.33
2022-11-30T20:16:12.957Z,32.38
2022-11-30T20:18:45.480Z,30.92
2022-11-30T20:21:15.286Z,31.10
2022-11-30T20:23:43.562Z,28.83
2022-11-30T20:26:27.282Z,32.55
2022-11-30T20:28:53.748Z,28.33
2022-11-30T20:31:22.044Z,33.50
2022-11-30T20:33:48.705Z,27.73
2022-11-30T20:36:16.427Z,35.90
2022-11-30T20:38:43.225Z,31.23
2022-11-30T20:41:12.063Z,29.38
2022-11-30T20:43:38.552Z,36.47
2022-11-30T20:46:22.831Z,30.07
2022-11-30T20:48:50.275Z,34.88
2022-11-30T20:51:30.154Z,33.60
2022-11-30T20:53:58.778Z,34.05
2022-11-30T20:56:25.275Z,35.17
2022-11-30T20:58:51.624Z,36.30
2022-11-30T21:01:21.071Z,36.40
2022-11-30T21:03:48.087Z,34.28
2022-11-30T21:06:15.278Z,34.72
2022-11-30T21:08:42.545Z,35.45
2022-11-30T21:11:14.953Z,34.43
2022-11-30T21:13:43.831Z,31.42
2022-11-30T21:16:11.492Z,35.70
2022-11-30T21:18:39.695Z,37.03
2022-11-30T21:21:09.498Z,34.38
2022-11-30T21:23:37.268Z,33.73
2022-11-30T21:26:05.834Z,35.15
2022-11-30T21:28:37.879Z,31.05
2022-11-30T21:31:05.355Z,37.83
2022-11-30T21:33:32.238Z,35.80
2022-11-30T21:35:58.639Z,34.27
2022-11-30T21:38:25.052Z,37.35
2022-11-30T21:40:55.856Z,33.80
2022-11-30T21:43:22.361Z,32.22
2022-11-30T21:46:01.211Z,33.15
2022-11-30T21:48:32.573Z,31.10
2022-11-30T21:51:03.567Z,35.17
2022-11-30T21:53:30.844Z,34.15
2022-11-30T21:56:03.483Z,32.70
2022-11-30T21:58:31.937Z,38.25
2022-11-30T22:01:00.362Z,38.33
2022-11-30T22:03:27.220Z,35.40
2022-11-30T22:06:06.490Z,34.47
2022-11-30T22:08:33.786Z,34.38
2022-11-30T22:11:06.166Z,30.98
2022-11-30T22:13:33.427Z,30.80
2022-11-30T22:16:03.017Z,32.58
2022-11-30T22:18:29.866Z,38.13
2022-11-30T22:21:04.022Z,34.88
2022-11-30T22:23:32.504Z,37.85
2022-11-30T22:26:18.574Z,34.97
2022-11-30T22:28:50.356Z,35.10
2022-11-30T22:31:18.947Z,36.42
2022-11-30T22:33:46.316Z,31.38
2022-11-30T22:36:18.872Z,39.25
2022-11-30T22:38:46.359Z,36.73
2022-11-30T22:41:15.273Z,33.80
2022-11-30T22:43:43.326Z,34.75
2022-11-30T22:46:12.266Z,37.40
2022-11-30T22:48:39.552Z,37.55
2022-11-30T22:51:08.686Z,36.20
2022-11-30T22:53:36.240Z,32.38
2022-11-30T22:56:05.237Z,35.00
2022-11-30T22:58:32.096Z,39.95
2022-11-30T23:01:06.680Z,36.90
2022-11-30T23:03:33.091Z,34.13
2022-11-30T23:05:59.456Z,36.75
2022-11-30T23:08:25.788Z,35.35
2022-11-30T23:10:57.215Z,40.65
2022-11-30T23:13:24.467Z,37.25
2022-11-30T23:15:51.100Z,34.13
2022-11-30T23:18:17.717Z,34.80
2022-11-30T23:20:44.107Z,36.45
2022-11-30T23:23:10.414Z,36.97
2022-11-30T23:25:36.787Z,35.88
2022-11-30T23:28:03.180Z,30.53
2022-11-30T23:30:29.530Z,37.03
2022-11-30T23:32:56.378Z,36.42
2022-11-30T23:35:23.894Z,34.10
2022-11-30T23:37:51.374Z,33.40
2022-11-30T23:40:18.712Z,39.30
2022-11-30T23:42:45.088Z,37.08
2022-11-30T23:45:11.795Z,33.67
2022-11-30T23:47:38.555Z,35.72
2022-11-30T23:50:05.996Z,34.95
2022-11-30T23:52:32.346Z,39.60
2022-11-30T23:54:58.696Z,33.70
2022-11-30T23:57:25.091Z,35.15
2022-11-30T23:59:51.515Z,37.35
